Time;durP1;ratioP1;P1;durP2;ratioP2;P2;SDS_P1;SDS_P2;PMS_P1;PMS_P2;Temp;Humidity;BMP_temperature;BMP_pressure;BME280_temperature;BME280_humidity;BME280_pressure;Samples;Min_cycle;Max_cycle;Signal;HPM_P1;HPM_P2
2022/06/10 00:01:21;;;;;;;6.88;3.92;;;9.50;99.90;;;;;;4769677;30;20049;-71
2022/06/10 00:03:47;;;;;;;12.95;4.10;;;9.60;99.90;;;;;;4771293;30;20028;-71
2022/06/10 00:06:14;;;;;;;12.15;4.07;;;9.60;99.90;;;;;;4771112;30;20473;-71
2022/06/10 00:08:46;;;;;;;8.38;3.55;;;9.60;99.90;;;;;;4770693;30;20028;-71
2022/06/10 00:11:14;;;;;;;9.18;3.30;;;9.60;99.90;;;;;;4770978;30;20028;-71
2022/06/10 00:13:48;;;;;;;7.68;3.30;;;9.70;99.90;;;;;;4770873;30;20039;-71
2022/06/10 00:16:19;;;;;;;9.07;3.58;;;9.70;99.90;;;;;;4770756;30;20047;-71
2022/06/10 00:18:48;;;;;;;8.65;3.75;;;9.70;99.90;;;;;;4770975;30;20641;-71
2022/06/10 00:21:20;;;;;;;9.60;3.65;;;9.70;99.90;;;;;;4752375;30;20044;-71
2022/06/10 00:23:49;;;;;;;9.40;4.28;;;9.80;99.90;;;;;;4768811;30;20058;-71
2022/06/10 00:26:18;;;;;;;9.20;3.70;;;9.80;99.90;;;;;;4760924;30;20548;-71
2022/06/10 00:28:47;;;;;;;9.10;3.83;;;9.70;99.90;;;;;;4769907;30;20093;-71
2022/06/10 00:31:20;;;;;;;10.85;3.83;;;9.60;99.90;;;;;;4760403;30;20063;-71
2022/06/10 00:33:49;;;;;;;12.20;3.30;;;9.50;99.90;;;;;;4771231;30;20039;-71
2022/06/10 00:36:15;;;;;;;8.10;2.95;;;9.50;99.90;;;;;;4770619;30;20592;-71
2022/06/10 00:38:49;;;;;;;9.70;3.40;;;9.50;99.90;;;;;;4771056;30;20030;-71
2022/06/10 00:41:15;;;;;;;7.03;2.95;;;9.40;99.90;;;;;;4761593;24;20104;-74
2022/06/10 00:44:05;;;;;;;7.80;3.35;;;9.50;99.90;;;;;;4788394;30;20035;-74
2022/06/10 00:46:35;;;;;;;10.23;3.60;;;9.50;99.90;;;;;;4787806;30;20215;-74
2022/06/10 00:49:20;;;;;;;8.85;3.38;;;9.50;99.90;;;;;;4776390;30;20041;-74
2022/06/10 00:51:49;;;;;;;11.15;3.78;;;9.40;99.90;;;;;;4777592;30;20027;-74
2022/06/10 00:54:26;;;;;;;8.40;3.58;;;9.30;99.90;;;;;;4771897;30;20042;-74
2022/06/10 00:57:10;;;;;;;8.90;4.25;;;9.30;99.90;;;;;;4780996;30;20039;-74
2022/06/10 01:00:10;;;;;;;9.40;3.50;;;9.30;99.90;;;;;;4785024;30;20532;-74
2022/06/10 01:02:42;;;;;;;9.93;3.33;;;9.30;99.90;;;;;;4755064;30;20552;-74
2022/06/10 01:05:26;;;;;;;13.40;3.90;;;9.30;99.90;;;;;;4787918;30;20056;-74
2022/06/10 01:07:57;;;;;;;10.60;3.40;;;9.30;99.90;;;;;;4787809;30;20055;-74
2022/06/10 01:10:24;;;;;;;6.50;3.45;;;9.30;99.90;;;;;;4787879;30;20034;-74
2022/06/10 01:13:27;;;;;;;9.95;3.80;;;9.30;99.90;;;;;;4787789;30;20031;-74
2022/06/10 01:16:20;;;;;;;11.40;3.58;;;9.20;99.90;;;;;;4779199;30;20548;-74
2022/06/10 01:19:04;;;;;;;8.15;3.22;;;9.20;99.90;;;;;;4765202;30;20070;-74
2022/06/10 01:21:54;;;;;;;13.32;3.17;;;9.40;99.90;;;;;;4787799;30;20036;-74
2022/06/10 01:24:54;;;;;;;11.57;3.00;;;9.30;99.90;;;;;;4787759;30;20023;-74
2022/06/10 01:27:50;;;;;;;8.75;3.47;;;9.50;99.90;;;;;;4787789;30;20472;-74
2022/06/10 01:31:01;;;;;;;8.45;2.85;;;9.30;99.90;;;;;;4787311;30;20027;-74
2022/06/10 01:33:27;;;;;;;10.48;3.10;;;9.30;99.90;;;;;;4753625;30;20497;-74
2022/06/10 01:36:04;;;;;;;12.57;3.05;;;9.20;99.90;;;;;;4787738;30;20034;-74
2022/06/10 01:38:59;;;;;;;8.65;2.95;;;9.20;99.90;;;;;;4787524;30;20480;-74
2022/06/10 01:42:06;;;;;;;9.82;3.00;;;9.40;99.90;;;;;;4778022;30;20581;-74
2022/06/10 01:44:47;;;;;;;10.00;3.00;;;9.30;99.90;;;;;;4765349;30;20047;-74
2022/06/10 01:47:21;;;;;;;9.48;3.08;;;9.30;99.90;;;;;;4773259;30;20034;-74
2022/06/10 01:49:54;;;;;;;11.95;2.80;;;9.40;99.90;;;;;;4769600;30;20089;-74
2022/06/10 01:52:39;;;;;;;13.52;2.97;;;9.40;99.90;;;;;;4782148;30;20031;-74
2022/06/10 01:55:18;;;;;;;8.85;3.25;;;9.60;99.90;;;;;;4769422;30;20119;-74
2022/06/10 01:58:06;;;;;;;11.70;2.85;;;9.60;99.90;;;;;;4769452;30;20044;-74
2022/06/10 02:00:38;;;;;;;10.95;2.78;;;9.60;99.90;;;;;;4769498;30;20032;-74
2022/06/10 02:03:15;;;;;;;8.57;3.03;;;9.50;99.90;;;;;;4769393;30;20039;-74
2022/06/10 02:06:00;;;;;;;10.07;3.00;;;9.80;99.90;;;;;;4769447;30;20028;-74
2022/06/10 02:08:44;;;;;;;10.98;2.95;;;9.70;99.90;;;;;;4760698;30;20568;-74
2022/06/10 02:11:17;;;;;;;11.18;3.03;;;9.80;99.90;;;;;;4768857;30;20032;-74
2022/06/10 02:13:59;;;;;;;9.98;2.92;;;9.70;99.90;;;;;;4778790;30;20050;-74
2022/06/10 02:16:37;;;;;;;11.75;2.97;;;9.70;99.90;;;;;;4773042;30;20048;-74
2022/06/10 02:19:25;;;;;;;10.55;3.08;;;9.60;99.90;;;;;;4769209;30;20064;-74
2022/06/10 02:22:02;;;;;;;12.75;2.70;;;9.80;99.90;;;;;;4769355;30;20036;-74
2022/06/10 02:24:44;;;;;;;14.05;3.03;;;9.70;99.90;;;;;;4769149;30;20051;-74
2022/06/10 02:27:21;;;;;;;9.95;2.97;;;9.60;99.90;;;;;;4769154;30;20453;-74
2022/06/10 02:30:02;;;;;;;13.93;3.35;;;9.70;99.90;;;;;;4762571;30;20045;-74
2022/06/10 02:32:30;;;;;;;12.65;3.65;;;9.70;99.90;;;;;;4774141;30;20469;-74
2022/06/10 02:34:59;;;;;;;8.80;3.00;;;9.70;99.90;;;;;;4774927;30;20043;-74
2022/06/10 02:37:39;;;;;;;10.63;3.00;;;9.80;99.90;;;;;;4775267;30;20108;-74
2022/06/10 02:40:10;;;;;;;;;;;9.80;99.90;;;;;;4758126;30;20049;-74
2022/06/10 02:42:49;;;;;;;19.63;3.72;;;10.00;99.90;;;;;;4772254;30;19945;-74
2022/06/10 02:45:45;;;;;;;11.40;2.63;;;9.90;1.00;;;;;;4767522;30;20031;-74
2022/06/10 02:48:45;;;;;;;12.63;2.65;;;9.90;1.00;;;;;;4777846;30;20030;-74
2022/06/10 02:51:12;;;;;;;12.25;2.85;;;9.80;1.00;;;;;;4777624;30;20085;-74
2022/06/10 02:53:41;;;;;;;14.52;3.00;;;9.90;1.00;;;;;;4777985;30;20019;-74
2022/06/10 02:56:31;;;;;;;12.13;3.10;;;9.90;1.00;;;;;;4778985;30;20404;-74
2022/06/10 03:02:13;;;;;;;9.10;3.22;;;9.90;1.00;;;;;;4772335;30;20093;-74
2022/06/10 03:04:48;;;;;;;11.30;2.75;;;9.80;1.00;;;;;;4772276;30;20035;-73
2022/06/10 03:07:22;;;;;;;11.80;2.95;;;9.90;1.00;;;;;;4759580;30;20381;-74
2022/06/10 03:10:01;;;;;;;13.18;3.00;;;9.80;1.00;;;;;;4783920;30;20031;-74
2022/06/10 03:12:43;;;;;;;11.10;2.72;;;9.90;1.00;;;;;;4760812;30;20051;-74
2022/06/10 03:15:36;;;;;;;7.25;2.67;;;9.80;1.00;;;;;;4784455;30;20038;-74
2022/06/10 03:18:19;;;;;;;13.32;3.20;;;9.90;1.00;;;;;;4765790;30;20066;-74
2022/06/10 03:21:16;;;;;;;6.20;2.88;;;10.10;1.00;;;;;;4773212;30;20036;-74
2022/06/10 03:24:04;;;;;;;15.60;3.03;;;10.00;1.00;;;;;;4772304;30;20024;-74
2022/06/10 03:27:46;;;;;;;7.65;3.35;;;10.00;1.00;;;;;;4746354;30;20048;-74
2022/06/10 03:30:21;;;;;;;11.52;3.55;;;10.20;1.00;;;;;;4692338;30;20037;-74
2022/06/10 03:33:04;;;;;;;11.23;3.30;;;10.40;1.00;;;;;;4703876;30;20383;-73
2022/06/10 03:35:51;;;;;;;12.20;3.55;;;10.60;1.00;;;;;;4716230;30;20061;-74
2022/06/10 03:38:18;;;;;;;16.70;4.00;;;10.80;1.00;;;;;;4716458;30;20132;-74
2022/06/10 03:40:52;;;;;;;9.27;3.80;;;11.00;1.00;;;;;;4722090;30;20520;-74
2022/06/10 03:43:31;;;;;;;8.23;3.95;;;11.20;1.00;;;;;;4771356;30;20453;-74
2022/06/10 03:46:03;;;;;;;12.75;4.32;;;11.30;1.00;;;;;;4771640;30;20521;-74
2022/06/10 03:48:37;;;;;;;11.73;4.53;;;11.40;1.00;;;;;;4771651;30;20024;-74
2022/06/10 03:51:14;;;;;;;8.45;3.70;;;11.50;1.00;;;;;;4771277;30;20043;-73
2022/06/10 03:53:40;;;;;;;8.52;3.80;;;11.70;3.70;;;;;;4771279;30;20055;-74
2022/06/10 03:56:26;;;;;;;16.98;3.95;;;11.90;15.90;;;;;;4771355;30;20035;-74
2022/06/10 03:58:58;;;;;;;15.18;4.25;;;12.00;20.80;;;;;;4770981;30;20524;-74
2022/06/10 04:01:36;;;;;;;9.43;3.28;;;12.30;43.40;;;;;;4771555;30;20032;-73
2022/06/10 04:04:25;;;;;;;9.45;4.05;;;12.30;24.40;;;;;;4771540;30;20042;-74
2022/06/10 04:06:53;;;;;;;17.80;4.20;;;12.30;1.00;;;;;;4751003;30;20096;-74
2022/06/10 04:09:48;;;;;;;13.73;4.28;;;12.50;1.00;;;;;;4778153;30;20039;-74
2022/06/10 04:12:19;;;;;;;8.27;3.20;;;12.70;1.00;;;;;;4760258;30;20096;-74
2022/06/10 04:14:47;;;;;;;14.25;3.67;;;12.70;1.00;;;;;;4775533;30;20047;-74
2022/06/10 04:17:13;;;;;;;12.15;3.50;;;12.60;1.00;;;;;;4777447;30;20035;-74
2022/06/10 04:19:48;;;;;;;15.07;3.22;;;12.60;99.90;;;;;;4780577;30;20016;-73
2022/06/10 04:22:16;;;;;;;13.43;3.85;;;12.70;99.90;;;;;;4783958;30;20118;-74
2022/06/10 04:24:45;;;;;;;9.25;2.97;;;12.80;99.90;;;;;;4771059;30;20430;-74
2022/06/10 04:27:17;;;;;;;7.85;3.00;;;13.00;99.90;;;;;;4771933;30;20070;-74
2022/06/10 04:29:43;;;;;;;12.50;3.30;;;13.00;99.90;;;;;;4767627;30;20039;-74
2022/06/10 04:32:20;;;;;;;9.25;2.95;;;13.00;99.90;;;;;;4775958;30;20585;-74
2022/06/10 04:34:45;;;;;;;11.18;2.92;;;13.10;99.90;;;;;;4781949;30;20115;-74
2022/06/10 04:37:16;;;;;;;10.10;3.17;;;13.40;99.90;;;;;;4770637;30;20114;-74
2022/06/10 04:39:42;;;;;;;11.40;2.90;;;13.90;99.90;;;;;;4764360;30;20510;-74
2022/06/10 04:42:16;;;;;;;8.35;2.80;;;14.40;99.90;;;;;;4776445;30;20067;-74
2022/06/10 04:44:42;;;;;;;8.95;2.90;;;14.70;98.60;;;;;;4779172;30;20090;-74
2022/06/10 04:47:10;;;;;;;10.18;3.05;;;14.90;1.00;;;;;;4752611;30;20075;-74
2022/06/10 04:49:39;;;;;;;11.68;2.78;;;15.10;1.00;;;;;;4752695;30;20032;-74
2022/06/10 04:52:11;;;;;;;9.05;2.38;;;15.20;1.00;;;;;;4752592;30;20115;-74
2022/06/10 04:54:40;;;;;;;7.80;2.53;;;15.20;1.00;;;;;;4752857;30;20485;-74
2022/06/10 04:57:08;;;;;;;9.45;2.75;;;15.20;1.00;;;;;;4752658;30;20066;-74
2022/06/10 04:59:37;;;;;;;11.15;2.90;;;15.10;1.00;;;;;;4768476;30;20081;-74
2022/06/10 05:02:05;;;;;;;10.48;2.95;;;15.10;47.90;;;;;;4770264;30;20024;-74
2022/06/10 05:04:40;;;;;;;14.98;2.90;;;15.10;90.70;;;;;;4769430;30;20560;-74
2022/06/10 05:07:08;;;;;;;10.48;2.90;;;15.10;99.90;;;;;;4770134;30;20039;-74
2022/06/10 05:09:43;;;;;;;10.07;3.10;;;15.00;1.00;;;;;;4770073;30;20529;-74
2022/06/10 05:12:12;;;;;;;6.03;2.58;;;15.10;1.00;;;;;;4769501;30;20551;-74
2022/06/10 05:14:47;;;;;;;8.48;2.78;;;15.10;1.00;;;;;;4767508;30;20488;-74
2022/06/10 05:17:33;;;;;;;8.20;3.20;;;15.20;1.00;;;;;;4767069;30;20050;-74
2022/06/10 05:19:59;;;;;;;7.40;3.05;;;15.10;1.00;;;;;;4752324;30;20036;-74
2022/06/10 05:22:34;;;;;;;7.97;2.47;;;15.10;1.00;;;;;;4768256;30;20032;-74
2022/06/10 05:24:59;;;;;;;8.80;3.10;;;15.10;1.00;;;;;;4762553;30;20035;-75
2022/06/10 05:27:33;;;;;;;9.25;3.00;;;15.10;1.00;;;;;;4767963;30;20023;-75
2022/06/10 05:30:14;;;;;;;7.20;2.75;;;15.30;1.00;;;;;;4771248;30;20032;-74
2022/06/10 05:32:46;;;;;;;9.68;3.45;;;15.30;1.00;;;;;;4769385;30;20501;-73
2022/06/10 05:35:12;;;;;;;10.93;3.10;;;15.40;1.00;;;;;;4751927;30;20040;-74
2022/06/10 05:37:41;;;;;;;7.50;3.47;;;15.50;1.00;;;;;;4752718;30;20485;-74
2022/06/10 05:40:10;;;;;;;10.95;3.85;;;15.60;1.00;;;;;;4752402;30;20077;-74
2022/06/10 05:42:36;;;;;;;15.60;4.63;;;15.60;1.00;;;;;;4758461;30;20094;-74
2022/06/10 05:45:17;;;;;;;14.27;3.95;;;15.70;1.00;;;;;;4769739;30;20264;-74
2022/06/10 05:47:49;;;;;;;12.35;4.53;;;15.70;1.00;;;;;;4751896;30;20032;-74
2022/06/10 05:50:39;;;;;;;9.48;3.88;;;15.80;1.00;;;;;;4735910;30;20038;-75
2022/06/10 05:53:12;;;;;;;14.30;4.65;;;15.80;1.00;;;;;;4751551;30;20028;-74
2022/06/10 05:55:44;;;;;;;7.60;3.30;;;15.90;1.00;;;;;;4763530;30;20089;-73
2022/06/10 05:58:18;;;;;;;7.20;3.45;;;16.10;99.90;;;;;;4768661;30;20071;-73
2022/06/10 06:00:46;;;;;;;7.82;3.28;;;16.20;99.90;;;;;;4769463;30;20039;-72
2022/06/10 06:03:12;;;;;;;10.35;3.60;;;16.30;99.90;;;;;;4767579;30;20032;-73
2022/06/10 06:05:38;;;;;;;8.85;3.60;;;16.20;99.90;;;;;;4768123;30;20032;-73
2022/06/10 06:08:07;;;;;;;7.22;3.03;;;16.20;99.90;;;;;;4766440;30;20079;-72
2022/06/10 06:10:38;;;;;;;11.63;4.15;;;16.30;99.90;;;;;;4768834;30;20024;-73
2022/06/10 06:13:15;;;;;;;8.23;3.30;;;16.30;99.90;;;;;;4768994;30;20056;-72
2022/06/10 06:15:47;;;;;;;9.13;3.58;;;16.40;99.90;;;;;;4754808;30;20051;-73
2022/06/10 06:18:15;;;;;;;11.57;3.90;;;16.60;99.90;;;;;;4764876;30;20115;-73
2022/06/10 06:20:41;;;;;;;7.95;3.42;;;16.80;99.90;;;;;;4761759;30;20463;-72
2022/06/10 06:23:09;;;;;;;6.22;3.70;;;16.80;99.90;;;;;;4768413;30;20027;-73
2022/06/10 06:25:35;;;;;;;5.53;2.92;;;16.80;99.90;;;;;;4768445;30;20024;-73
2022/06/10 06:28:07;;;;;;;6.28;3.20;;;16.80;99.90;;;;;;4769889;30;20106;-72
2022/06/10 06:30:36;;;;;;;7.68;4.20;;;16.70;99.90;;;;;;4767975;30;20039;-73
2022/06/10 06:33:12;;;;;;;5.22;3.40;;;16.60;99.90;;;;;;4775323;30;20128;-72
2022/06/10 06:35:39;;;;;;;5.90;3.47;;;16.50;99.90;;;;;;4751013;30;20036;-73
2022/06/10 06:38:10;;;;;;;5.95;3.72;;;16.70;99.90;;;;;;4765420;30;20114;-72
2022/06/10 06:40:41;;;;;;;9.35;4.05;;;16.70;99.90;;;;;;4768485;30;20039;-73
2022/06/10 06:43:08;;;;;;;5.45;3.50;;;16.70;99.90;;;;;;4758844;30;20126;-73
2022/06/10 06:45:40;;;;;;;6.15;3.17;;;16.70;99.90;;;;;;4768352;30;20494;-73
2022/06/10 06:48:09;;;;;;;5.05;3.38;;;16.60;99.90;;;;;;4768320;30;20516;-73
2022/06/10 06:50:46;;;;;;;6.57;3.75;;;16.60;99.90;;;;;;4768855;30;20020;-73
2022/06/10 06:53:27;;;;;;;6.90;4.00;;;16.60;99.90;;;;;;4768585;30;20027;-75
2022/06/10 06:55:52;;;;;;;6.05;3.70;;;16.60;99.90;;;;;;4768321;30;20043;-74
2022/06/10 06:59:05;;;;;;;6.72;4.10;;;16.50;99.90;;;;;;4751172;30;20039;-74
2022/06/10 07:01:31;;;;;;;5.82;3.67;;;16.60;99.90;;;;;;4765343;30;20044;-74
2022/06/10 07:04:06;;;;;;;5.78;3.67;;;16.40;1.00;;;;;;4768374;30;20031;-74
2022/06/10 07:06:55;;;;;;;9.05;4.03;;;16.30;1.00;;;;;;4752941;30;20046;-75
2022/06/10 07:09:23;;;;;;;4.22;3.72;;;16.30;1.00;;;;;;4762849;30;20048;-74
2022/06/10 07:11:56;;;;;;;8.18;4.45;;;16.50;1.00;;;;;;4768871;30;20039;-75
2022/06/10 07:14:22;;;;;;;7.50;4.65;;;16.50;1.00;;;;;;4750908;30;20083;-74
2022/06/10 07:16:51;;;;;;;6.70;4.43;;;16.60;1.00;;;;;;4764322;30;20123;-73
2022/06/10 07:19:38;;;;;;;7.15;4.40;;;16.70;1.00;;;;;;4765749;30;20111;-73
2022/06/10 07:22:04;;;;;;;6.35;4.97;;;16.70;1.00;;;;;;4765535;30;20056;-74
2022/06/10 07:24:33;;;;;;;9.90;5.80;;;16.80;1.00;;;;;;4767221;30;20188;-73
2022/06/10 07:27:22;;;;;;;11.20;6.00;;;16.60;1.00;;;;;;4760681;30;20040;-74
2022/06/10 07:29:56;;;;;;;11.87;7.23;;;16.90;1.00;;;;;;4766978;30;20093;-74
2022/06/10 07:32:29;;;;;;;11.23;6.55;;;17.10;99.90;;;;;;4780649;30;20299;-73
2022/06/10 07:35:04;;;;;;;9.10;6.13;;;17.30;99.90;;;;;;4767934;30;20491;-73
2022/06/10 07:37:30;;;;;;;6.90;5.40;;;17.20;1.00;;;;;;4771325;30;20043;-74
2022/06/10 07:40:01;;;;;;;9.38;5.40;;;17.30;99.90;;;;;;4771824;30;20053;-74
2022/06/10 07:42:30;;;;;;;11.80;5.63;;;17.70;99.90;;;;;;4771051;30;20075;-74
2022/06/10 07:45:02;;;;;;;9.88;5.28;;;18.00;99.90;;;;;;4771168;30;20450;-74
2022/06/10 07:47:28;;;;;;;6.70;4.90;;;18.50;99.90;;;;;;4779656;30;20039;-73
2022/06/10 07:50:06;;;;;;;9.52;5.38;;;18.70;99.90;;;;;;4781259;30;20043;-73
2022/06/10 07:52:38;;;;;;;7.78;4.88;;;18.60;99.90;;;;;;4776369;30;20039;-73
2022/06/10 07:55:06;;;;;;;7.03;5.25;;;19.00;99.90;;;;;;4771036;30;20043;-73
2022/06/10 07:57:41;;;;;;;7.20;5.57;;;18.90;99.90;;;;;;4778277;30;20180;-73
2022/06/10 08:00:10;;;;;;;11.85;5.97;;;18.80;99.90;;;;;;4778338;30;20131;-73
2022/06/10 08:02:37;;;;;;;10.10;5.93;;;18.80;99.90;;;;;;4784960;30;20027;-72
2022/06/10 08:05:07;;;;;;;9.13;6.07;;;19.30;99.90;;;;;;4779645;30;20074;-72
2022/06/10 08:07:51;;;;;;;9.60;6.22;;;19.70;99.90;;;;;;4773968;30;20028;-72
2022/06/10 08:10:26;;;;;;;10.85;6.15;;;19.70;99.90;;;;;;4780319;30;20071;-72
2022/06/10 08:12:55;;;;;;;12.98;6.97;;;20.00;99.90;;;;;;4772564;30;20032;-73
2022/06/10 08:15:27;;;;;;;9.82;6.53;;;20.10;99.90;;;;;;4762187;30;20144;-72
2022/06/10 08:17:57;;;;;;;12.73;5.57;;;20.20;99.90;;;;;;4773678;30;20110;-75
2022/06/10 08:23:23;;;;;;;9.98;6.15;;;20.00;99.90;;;;;;4753390;30;20409;-73
2022/06/10 08:26:09;;;;;;;10.82;5.40;;;19.50;99.90;;;;;;4752652;30;20032;-74
2022/06/10 08:28:47;;;;;;;10.45;5.30;;;19.30;99.90;;;;;;4753803;30;20028;-74
2022/06/10 08:31:19;;;;;;;14.43;5.50;;;19.40;99.90;;;;;;4770603;30;20039;-73
2022/06/10 08:33:44;;;;;;;11.50;5.63;;;19.40;99.90;;;;;;4770359;30;20028;-73
2022/06/10 08:36:13;;;;;;;9.40;5.85;;;19.60;99.90;;;;;;4770243;30;20028;-74
2022/06/10 08:38:42;;;;;;;12.02;6.20;;;19.70;99.90;;;;;;4770532;30;20459;-73
2022/06/10 08:41:46;;;;;;;11.27;6.13;;;20.00;99.90;;;;;;4770420;30;20058;-73
2022/06/10 08:44:39;;;;;;;11.07;6.10;;;20.40;99.90;;;;;;4776862;30;20044;-74
2022/06/10 08:47:33;;;;;;;11.80;5.80;;;20.40;99.90;;;;;;4770532;30;20061;-74
2022/06/10 08:50:20;;;;;;;8.57;5.32;;;20.20;99.90;;;;;;4770336;30;20043;-73
2022/06/10 08:53:20;;;;;;;11.60;5.43;;;20.60;99.90;;;;;;4770657;30;20086;-73
2022/06/10 08:56:09;;;;;;;13.60;5.40;;;20.90;99.90;;;;;;4775198;30;20024;-73
2022/06/10 08:58:53;;;;;;;10.57;5.40;;;21.10;99.90;;;;;;4770462;30;20086;-73
2022/06/10 09:01:27;;;;;;;11.25;4.95;;;21.20;99.90;;;;;;4752871;30;20086;-73
2022/06/10 09:04:07;;;;;;;8.00;5.32;;;21.80;99.90;;;;;;4752616;30;20485;-73
2022/06/10 09:06:43;;;;;;;11.23;5.47;;;21.90;99.90;;;;;;4758227;30;20020;-73
2022/06/10 09:09:17;;;;;;;13.02;5.68;;;21.70;99.90;;;;;;4770156;30;20435;-73
2022/06/10 09:12:27;;;;;;;10.40;6.05;;;21.50;99.90;;;;;;4763718;30;20034;-73
2022/06/10 09:15:10;;;;;;;11.85;6.60;;;21.50;99.90;;;;;;4771200;30;20035;-73
2022/06/10 09:17:46;;;;;;;16.23;7.10;;;22.20;99.90;;;;;;4770385;30;20586;-73
2022/06/10 09:20:41;;;;;;;14.63;8.52;;;21.90;99.90;;;;;;4769924;30;20032;-73
2022/06/10 09:23:30;;;;;;;13.30;7.05;;;21.50;99.90;;;;;;4779860;30;20051;-73
2022/06/10 09:26:08;;;;;;;9.15;5.63;;;21.60;99.90;;;;;;4769923;30;20110;-74
2022/06/10 09:28:40;;;;;;;13.63;5.97;;;21.30;99.90;;;;;;4774483;30;20471;-74
2022/06/10 09:31:32;;;;;;;13.98;6.13;;;21.20;99.90;;;;;;4786108;30;20126;-73
2022/06/10 09:34:33;;;;;;;10.15;5.28;;;21.10;99.90;;;;;;4765582;30;20062;-73
2022/06/10 09:37:39;;;;;;;11.85;5.90;;;20.90;99.90;;;;;;4769598;30;20043;-73
2022/06/10 09:43:24;;;;;;;9.75;5.70;;;20.60;99.90;;;;;;4758017;30;20062;-74
2022/06/10 09:46:26;;;;;;;10.25;5.50;;;20.60;99.90;;;;;;4772607;30;20399;-73
2022/06/10 09:49:12;;;;;;;8.95;6.05;;;20.70;99.90;;;;;;4757914;30;20429;-73
2022/06/10 09:51:56;;;;;;;11.25;5.95;;;20.70;99.90;;;;;;4770762;30;20119;-73
2022/06/10 09:55:07;;;;;;;10.02;6.15;;;20.80;99.90;;;;;;4760708;30;20035;-74
2022/06/10 09:58:02;;;;;;;12.40;6.40;;;20.90;99.90;;;;;;4758733;30;20063;-73
2022/06/10 10:01:01;;;;;;;9.43;6.07;;;20.90;99.90;;;;;;4784475;30;20085;-74
2022/06/10 10:03:39;;;;;;;9.57;5.80;;;21.30;99.90;;;;;;4762824;30;20084;-74
2022/06/10 10:06:31;;;;;;;8.52;6.00;;;21.60;99.90;;;;;;4751322;30;20055;-74
2022/06/10 10:09:36;;;;;;;12.00;5.00;;;21.90;99.90;;;;;;4758315;30;20035;-74
2022/06/10 10:12:30;;;;;;;8.27;4.88;;;21.90;99.90;;;;;;4752036;30;20068;-73
2022/06/10 10:15:16;;;;;;;10.68;4.97;;;21.90;99.90;;;;;;4769250;30;20116;-74
2022/06/10 10:17:47;;;;;;;12.57;6.22;;;21.50;99.90;;;;;;4769157;30;20080;-73
2022/06/10 10:20:41;;;;;;;10.90;7.75;;;22.00;99.90;;;;;;4779939;30;20032;-74
2022/06/10 10:23:17;;;;;;;10.40;7.00;;;22.90;99.90;;;;;;4765774;30;20034;-74
2022/06/10 10:25:47;;;;;;;13.68;7.50;;;23.90;99.90;;;;;;4773155;30;20052;-74
2022/06/10 10:28:30;;;;;;;11.43;7.78;;;24.00;99.60;;;;;;4769091;30;20032;-74
2022/06/10 10:31:37;;;;;;;9.43;7.25;;;24.60;96.80;;;;;;4781642;30;20523;-74
2022/06/10 10:34:12;;;;;;;11.73;6.40;;;24.10;98.50;;;;;;4774274;30;20054;-74
2022/06/10 10:36:56;;;;;;;7.25;5.45;;;24.40;92.90;;;;;;4757110;30;20027;-74
2022/06/10 10:39:50;;;;;;;10.38;5.60;;;24.10;86.90;;;;;;4783235;30;20047;-74
2022/06/10 10:42:29;;;;;;;10.90;5.30;;;24.70;91.00;;;;;;4759727;30;20101;-73
2022/06/10 10:45:12;;;;;;;9.52;5.63;;;24.80;80.70;;;;;;4764324;30;20115;-73
2022/06/10 10:47:38;;;;;;;8.93;5.07;;;25.80;77.30;;;;;;4769449;30;20082;-74
2022/06/10 10:50:40;;;;;;;10.05;4.85;;;27.60;52.30;;;;;;4765353;30;20377;-73
2022/06/10 10:53:22;;;;;;;6.05;4.28;;;26.70;48.60;;;;;;4768411;30;20584;-73
2022/06/10 10:56:03;;;;;;;5.30;4.10;;;25.40;54.60;;;;;;4768862;30;20028;-74
2022/06/10 10:58:38;;;;;;;9.52;4.22;;;25.50;56.30;;;;;;4768796;30;20074;-74
2022/06/10 11:01:43;;;;;;;7.32;3.85;;;25.90;55.80;;;;;;4768779;30;20054;-74
2022/06/10 11:03:59;;;;;;;6.80;3.95;;;27.40;43.60;;;;;;4760871;30;20036;-74
2022/06/10 11:06:29;;;;;;;7.00;4.60;;;25.90;54.10;;;;;;4784164;30;20039;-73
2022/06/10 11:09:10;;;;;;;6.13;4.72;;;26.10;43.10;;;;;;4759991;30;20028;-74
2022/06/10 11:11:46;;;;;;;7.57;4.90;;;26.80;44.80;;;;;;4772775;30;20089;-74
2022/06/10 11:14:29;;;;;;;6.75;4.80;;;26.70;59.10;;;;;;4771857;30;20039;-74
2022/06/10 11:17:18;;;;;;;8.20;5.10;;;26.30;61.80;;;;;;4775923;30;20048;-74
2022/06/10 11:20:13;;;;;;;8.05;4.80;;;27.10;45.80;;;;;;4772016;30;20039;-74
2022/06/10 11:22:39;;;;;;;8.63;4.88;;;26.60;59.30;;;;;;4753081;30;20104;-73
2022/06/10 11:25:19;;;;;;;6.13;4.57;;;25.60;60.90;;;;;;4777824;30;20032;-74
2022/06/10 11:27:58;;;;;;;7.43;4.57;;;25.70;63.80;;;;;;4761566;30;20040;-74
2022/06/10 11:30:36;;;;;;;5.97;4.05;;;25.70;75.00;;;;;;4772681;30;20024;-74
2022/06/10 11:33:05;;;;;;;5.10;4.55;;;25.00;82.80;;;;;;4781858;30;20042;-74
2022/06/10 11:35:34;;;;;;;10.43;5.10;;;24.10;82.80;;;;;;4780582;30;20420;-74
2022/06/10 11:38:24;;;;;;;9.30;4.20;;;23.60;86.90;;;;;;4782787;30;20429;-74
2022/06/10 11:40:55;;;;;;;9.43;4.72;;;23.60;95.20;;;;;;4771613;30;20151;-74
2022/06/10 11:43:23;;;;;;;9.98;4.18;;;25.30;77.50;;;;;;4770125;30;20087;-74
2022/06/10 11:46:01;;;;;;;7.97;3.97;;;26.80;58.50;;;;;;4786273;30;20028;-74
2022/06/10 11:48:48;;;;;;;9.23;4.03;;;28.00;52.70;;;;;;4773180;30;20027;-74
2022/06/10 11:51:40;;;;;;;7.82;4.20;;;27.20;38.80;;;;;;4782939;30;20027;-74
2022/06/10 11:54:30;;;;;;;7.72;3.97;;;26.50;47.80;;;;;;4753418;30;20036;-73
2022/06/10 12:00:27;;;;;;;5.40;3.20;;;25.90;58.10;;;;;;4778733;30;20401;-74
2022/06/10 12:03:20;;;;;;;3.13;2.00;;;25.90;53.20;;;;;;4771160;30;20079;-74
2022/06/10 12:06:17;;;;;;;2.88;1.60;;;26.60;63.30;;;;;;4753581;30;20020;-74
2022/06/10 12:09:09;;;;;;;2.97;1.50;;;26.60;50.90;;;;;;4753471;30;20036;-74
2022/06/10 12:11:45;;;;;;;2.53;1.40;;;26.30;48.70;;;;;;4753174;30;20036;-74
2022/06/10 12:14:14;;;;;;;5.07;1.70;;;26.30;48.80;;;;;;4753097;30;20032;-74
2022/06/10 12:16:53;;;;;;;3.40;1.17;;;26.70;46.30;;;;;;4773277;30;20091;-74
2022/06/10 12:19:41;;;;;;;4.97;1.30;;;26.80;45.50;;;;;;4788844;30;20031;-74
2022/06/10 12:22:10;;;;;;;2.53;1.40;;;27.50;36.40;;;;;;4753173;30;20389;-74
2022/06/10 12:24:45;;;;;;;1.27;0.95;;;27.60;38.70;;;;;;4769353;30;20027;-74
2022/06/10 12:27:43;;;;;;;2.88;1.00;;;28.30;33.60;;;;;;4771031;30;20062;-75
2022/06/10 12:30:44;;;;;;;2.15;1.00;;;28.10;30.80;;;;;;4748419;30;20466;-74
2022/06/10 12:33:27;;;;;;;2.60;1.35;;;28.40;26.30;;;;;;4753014;30;20120;-74
2022/06/10 12:35:57;;;;;;;3.75;1.10;;;28.40;29.90;;;;;;4753207;30;20083;-74
2022/06/10 12:38:27;;;;;;;;;;;27.10;21.20;;;;;;4753278;30;20068;-75
2022/06/10 12:41:04;;;;;;;;;;;27.60;27.80;;;;;;4767836;30;20366;-74
2022/06/10 12:43:38;;;;;;;3.47;1.35;;;28.20;22.50;;;;;;4787976;30;19926;-75
2022/06/10 12:46:39;;;;;;;3.10;1.40;;;28.70;16.00;;;;;;4776277;30;20023;-74
2022/06/10 12:49:29;;;;;;;5.20;1.75;;;28.80;12.60;;;;;;4770435;30;20746;-74
2022/06/10 12:52:24;;;;;;;4.13;1.58;;;28.90;12.40;;;;;;4757889;30;20560;-74
2022/06/10 12:54:59;;;;;;;3.38;1.60;;;28.30;8.90;;;;;;4784763;30;20058;-74
2022/06/10 12:57:44;;;;;;;4.70;1.50;;;29.10;11.20;;;;;;4777471;30;20046;-74
2022/06/10 13:00:22;;;;;;;6.57;1.67;;;29.00;12.20;;;;;;4758234;30;20038;-74
2022/06/10 13:02:52;;;;;;;4.85;1.65;;;29.50;5.40;;;;;;4765163;30;20564;-74
2022/06/10 13:05:45;;;;;;;7.68;1.80;;;28.90;15.10;;;;;;4755215;30;20701;-75
2022/06/10 13:08:34;;;;;;;4.68;1.60;;;29.10;8.90;;;;;;4758106;30;20039;-75
2022/06/10 13:11:08;;;;;;;;;;;28.50;13.50;;;;;;4770714;30;20020;-74
2022/06/10 13:13:43;;;;;;;5.70;1.90;;;28.10;10.00;;;;;;4770180;30;19910;-74
2022/06/10 13:16:42;;;;;;;4.60;1.73;;;28.20;9.70;;;;;;4765051;30;20118;-74
2022/06/10 13:19:42;;;;;;;5.03;1.63;;;28.30;9.80;;;;;;4752277;30;20111;-74
2022/06/10 13:22:28;;;;;;;7.00;2.15;;;28.70;5.00;;;;;;4769708;30;20065;-74
2022/06/10 13:24:54;;;;;;;4.05;1.85;;;28.10;3.00;;;;;;4769151;30;20114;-74
2022/06/10 13:27:42;;;;;;;6.60;1.75;;;28.40;3.10;;;;;;4769938;30;20139;-75
2022/06/10 13:30:28;;;;;;;3.45;1.63;;;27.60;1.00;;;;;;4769896;30;20027;-74
2022/06/10 13:33:09;;;;;;;7.00;1.90;;;28.10;1.00;;;;;;4769809;30;20020;-74
2022/06/10 13:36:04;;;;;;;7.22;2.30;;;28.20;3.80;;;;;;4767889;30;20039;-74
2022/06/10 13:38:36;;;;;;;6.80;2.17;;;27.70;8.80;;;;;;4758792;30;20119;-74
2022/06/10 13:42:06;;;;;;;8.00;2.40;;;27.80;2.60;;;;;;4769033;30;20099;-75
2022/06/10 13:44:21;;;;;;;6.55;2.17;;;27.60;3.60;;;;;;4742825;30;20394;-75
2022/06/10 13:46:56;;;;;;;7.20;2.53;;;27.60;8.70;;;;;;4745228;30;20091;-74
2022/06/10 13:49:46;;;;;;;7.18;2.47;;;26.80;8.20;;;;;;4757485;30;20036;-75
2022/06/10 13:52:35;;;;;;;5.43;2.00;;;27.20;13.80;;;;;;4743951;30;20107;-74
2022/06/10 13:56:00;;;;;;;5.93;2.35;;;27.20;12.90;;;;;;4676472;30;20069;-75
2022/06/10 13:58:30;;;;;;;7.55;2.05;;;27.20;8.60;;;;;;4734405;30;20102;-75
2022/06/10 14:01:21;;;;;;;10.48;2.67;;;27.00;7.00;;;;;;4749765;30;20118;-75